createdAt,value
2017-12-21T00:01:25.890Z,98.65
2017-12-21T00:03:51.677Z,98.59
2017-12-21T00:06:17.466Z,98.58
2017-12-21T00:08:43.248Z,98.68
2017-12-21T00:11:09.062Z,98.57
2017-12-21T00:13:34.851Z,98.58
2017-12-21T00:16:00.640Z,98.60
2017-12-21T00:18:26.698Z,98.44
2017-12-21T00:20:52.504Z,98.58
2017-12-21T00:23:18.287Z,98.66
2017-12-21T00:25:44.093Z,98.58
2017-12-21T00:28:09.890Z,98.47
2017-12-21T00:30:35.674Z,98.40
2017-12-21T00:33:01.493Z,98.46
2017-12-21T00:35:27.276Z,98.47
2017-12-21T00:37:53.889Z,98.50
2017-12-21T00:40:19.731Z,98.47
2017-12-21T00:42:45.524Z,98.42
2017-12-21T00:45:11.326Z,98.40
2017-12-21T00:47:37.135Z,98.39
2017-12-21T00:50:02.923Z,98.48
2017-12-21T00:52:28.696Z,98.54
2017-12-21T00:54:54.529Z,98.50
2017-12-21T00:57:20.294Z,98.43
2017-12-21T00:59:46.091Z,98.51
2017-12-21T01:02:11.863Z,98.32
2017-12-21T01:04:37.631Z,98.39
2017-12-21T01:07:03.428Z,98.38
2017-12-21T01:09:29.215Z,98.40
2017-12-21T01:11:54.983Z,98.53
2017-12-21T01:14:20.795Z,98.39
2017-12-21T01:16:46.581Z,98.41
2017-12-21T01:19:12.379Z,98.26
2017-12-21T01:21:38.438Z,98.24
2017-12-21T01:24:04.231Z,98.16
2017-12-21T01:26:30.012Z,98.20
2017-12-21T01:28:56.005Z,98.44
2017-12-21T01:31:21.791Z,98.38
2017-12-21T01:33:47.571Z,98.39
2017-12-21T01:36:13.366Z,98.45
2017-12-21T01:38:39.143Z,98.44
2017-12-21T01:41:04.955Z,98.31
2017-12-21T01:43:30.777Z,98.31
2017-12-21T01:45:56.562Z,98.46
2017-12-21T01:48:22.364Z,98.45
2017-12-21T01:50:48.190Z,98.54
2017-12-21T01:53:13.990Z,98.53
2017-12-21T01:55:39.781Z,98.58
2017-12-21T01:58:05.591Z,98.56
2017-12-21T02:00:31.386Z,98.51
2017-12-21T02:02:57.166Z,98.66
2017-12-21T02:05:22.969Z,98.57
2017-12-21T02:07:48.750Z,98.62
2017-12-21T02:10:14.531Z,98.57
2017-12-21T02:12:40.345Z,98.54
2017-12-21T02:15:06.152Z,98.50
2017-12-21T02:17:31.991Z,98.50
2017-12-21T02:19:57.794Z,98.55
2017-12-21T02:22:23.608Z,98.43
2017-12-21T02:24:49.453Z,98.49
2017-12-21T02:27:15.288Z,98.79
2017-12-21T02:29:41.094Z,98.61
2017-12-21T02:32:06.972Z,98.57
2017-12-21T02:34:32.784Z,98.55
2017-12-21T02:36:58.583Z,98.46
2017-12-21T02:39:24.424Z,98.44
2017-12-21T02:41:50.230Z,98.54
2017-12-21T02:44:16.047Z,98.65
2017-12-21T02:46:41.870Z,98.41
2017-12-21T02:49:07.688Z,98.52
2017-12-21T02:51:33.500Z,98.45
2017-12-21T02:53:59.305Z,98.45
2017-12-21T02:56:25.139Z,98.61
2017-12-21T02:58:50.947Z,98.64
2017-12-21T03:01:16.763Z,98.65
2017-12-21T03:03:42.571Z,98.66
2017-12-21T03:06:08.379Z,98.69
2017-12-21T03:08:34.187Z,98.61
2017-12-21T03:10:59.990Z,98.58
2017-12-21T03:13:25.787Z,98.70
2017-12-21T03:15:51.803Z,98.63
2017-12-21T03:18:17.605Z,98.41
2017-12-21T03:20:43.395Z,98.45
2017-12-21T03:23:09.234Z,98.48
2017-12-21T03:25:35.032Z,98.52
2017-12-21T03:28:00.844Z,98.57
2017-12-21T03:30:26.664Z,98.58
2017-12-21T03:32:52.471Z,98.67
2017-12-21T03:35:18.308Z,98.64
2017-12-21T03:37:44.106Z,98.68
2017-12-21T03:40:09.932Z,98.46
2017-12-21T03:42:35.756Z,98.44
2017-12-21T03:45:01.570Z,98.33
2017-12-21T03:47:27.371Z,98.37
2017-12-21T03:49:53.363Z,98.41
2017-12-21T03:52:19.186Z,98.59
2017-12-21T03:54:44.988Z,98.56
2017-12-21T03:57:10.806Z,97.92
2017-12-21T03:59:36.614Z,98.02
2017-12-21T04:02:02.418Z,98.21
2017-12-21T04:04:28.254Z,97.99
2017-12-21T04:06:54.052Z,98.07
2017-12-21T04:09:19.840Z,98.14
2017-12-21T04:11:45.664Z,98.10
2017-12-21T04:14:11.451Z,98.04
2017-12-21T04:16:37.243Z,98.09
2017-12-21T04:19:03.064Z,98.11
2017-12-21T04:21:28.863Z,98.00
2017-12-21T04:23:54.655Z,97.98
2017-12-21T04:26:20.447Z,98.07
2017-12-21T04:28:46.252Z,98.14
2017-12-21T04:31:12.075Z,98.01
2017-12-21T04:33:37.871Z,98.20
2017-12-21T04:36:03.679Z,98.32
2017-12-21T04:38:29.464Z,98.38
2017-12-21T04:40:55.303Z,98.26
2017-12-21T04:43:21.107Z,98.49
2017-12-21T04:45:46.900Z,98.42
2017-12-21T04:48:12.711Z,98.51
2017-12-21T04:50:38.910Z,98.54
2017-12-21T04:53:04.746Z,98.39
2017-12-21T04:55:30.545Z,98.58
2017-12-21T04:57:56.343Z,98.58
2017-12-21T05:00:22.171Z,98.49
2017-12-21T05:02:47.979Z,98.50
2017-12-21T05:05:13.780Z,98.55
2017-12-21T05:07:39.591Z,98.49
2017-12-21T05:10:05.446Z,98.54
2017-12-21T05:12:31.251Z,98.54
2017-12-21T05:14:57.058Z,98.50
2017-12-21T05:17:22.883Z,98.59
2017-12-21T05:19:48.691Z,98.82
2017-12-21T05:22:14.517Z,98.68
2017-12-21T05:24:40.364Z,98.62
2017-12-21T05:27:06.179Z,98.63
2017-12-21T05:29:31.975Z,98.64
2017-12-21T05:31:57.769Z,98.61
2017-12-21T05:34:23.559Z,98.44
2017-12-21T05:36:49.382Z,98.56
2017-12-21T05:39:15.152Z,98.65
2017-12-21T05:41:40.948Z,98.57
2017-12-21T05:44:06.744Z,98.51
2017-12-21T05:46:32.572Z,98.65
2017-12-21T05:48:58.366Z,98.77
2017-12-21T05:51:24.191Z,98.67
2017-12-21T05:53:49.992Z,98.67
2017-12-21T05:56:15.788Z,98.50
2017-12-21T05:58:41.595Z,98.45
2017-12-21T06:01:07.407Z,98.19
2017-12-21T06:03:33.202Z,98.25
2017-12-21T06:05:58.987Z,98.11
2017-12-21T06:08:25.208Z,98.29
2017-12-21T06:10:50.994Z,98.43
2017-12-21T06:13:16.782Z,98.20
2017-12-21T06:15:42.616Z,98.01
2017-12-21T06:18:08.423Z,97.79
2017-12-21T06:20:34.223Z,97.55
2017-12-21T06:23:00.031Z,97.70
2017-12-21T06:25:25.818Z,97.82
2017-12-21T06:27:51.602Z,97.06
2017-12-21T06:30:17.405Z,96.59
2017-12-21T06:32:43.178Z,96.67
2017-12-21T06:35:08.976Z,96.80
2017-12-21T06:37:35.140Z,96.04
2017-12-21T06:40:00.943Z,96.04
2017-12-21T06:42:26.735Z,95.90
2017-12-21T06:44:52.576Z,96.00
2017-12-21T06:47:18.367Z,95.67
2017-12-21T06:49:44.159Z,95.33
2017-12-21T06:52:10.143Z,95.20
2017-12-21T06:54:35.954Z,95.08
2017-12-21T06:57:01.742Z,94.99
2017-12-21T06:59:27.559Z,94.66
2017-12-21T07:01:53.347Z,94.56
2017-12-21T07:04:19.152Z,95.15
2017-12-21T07:06:44.942Z,94.92
2017-12-21T07:09:10.735Z,94.79
2017-12-21T07:11:36.544Z,94.67
2017-12-21T07:14:02.335Z,94.59
2017-12-21T07:16:28.123Z,94.78
2017-12-21T07:18:53.914Z,94.87
2017-12-21T07:21:19.702Z,94.75
2017-12-21T07:23:45.518Z,93.54
2017-12-21T07:26:11.303Z,93.39
2017-12-21T07:28:37.096Z,94.08
2017-12-21T07:31:02.916Z,94.37
2017-12-21T07:33:28.697Z,94.33
2017-12-21T07:35:54.475Z,94.54
2017-12-21T07:38:20.588Z,94.54
2017-12-21T07:40:46.389Z,94.96
2017-12-21T07:43:12.167Z,94.73
2017-12-21T07:45:37.967Z,94.29
2017-12-21T07:48:03.751Z,94.78
2017-12-21T07:50:29.549Z,93.69
2017-12-21T07:52:55.500Z,94.96
2017-12-21T07:55:21.300Z,93.81
2017-12-21T07:57:47.099Z,94.16
2017-12-21T08:00:12.917Z,93.33
2017-12-21T08:02:38.722Z,93.41
2017-12-21T08:05:04.519Z,93.77
2017-12-21T08:07:30.332Z,93.21
2017-12-21T08:09:56.116Z,93.00
2017-12-21T08:12:21.927Z,93.51
2017-12-21T08:14:47.734Z,92.89
2017-12-21T08:17:13.543Z,93.29
2017-12-21T08:19:39.323Z,93.52
2017-12-21T08:22:05.119Z,92.02
2017-12-21T08:24:30.945Z,91.35
2017-12-21T08:26:56.752Z,92.47
2017-12-21T08:29:22.540Z,93.18
2017-12-21T08:31:48.352Z,93.24
2017-12-21T08:34:14.153Z,92.44
2017-12-21T08:36:39.971Z,92.15
2017-12-21T08:39:05.800Z,92.23
2017-12-21T08:41:31.589Z,92.81
2017-12-21T08:43:57.421Z,92.65
2017-12-21T08:46:23.218Z,91.42
2017-12-21T08:48:49.114Z,91.37
2017-12-21T08:51:15.140Z,91.88
2017-12-21T08:53:40.956Z,92.11
2017-12-21T08:56:06.743Z,91.49
2017-12-21T08:58:33.239Z,91.65
2017-12-21T09:00:59.088Z,92.23
2017-12-21T09:03:24.931Z,91.35
2017-12-21T09:05:50.751Z,91.57
2017-12-21T09:08:16.555Z,91.12
2017-12-21T09:10:42.375Z,90.49
2017-12-21T09:13:08.182Z,92.11
2017-12-21T09:15:33.984Z,91.25
2017-12-21T09:17:59.787Z,92.31
2017-12-21T09:20:25.587Z,92.65
2017-12-21T09:22:51.399Z,94.56
2017-12-21T09:25:17.207Z,92.50
2017-12-21T09:27:43.007Z,91.60
2017-12-21T09:30:08.841Z,92.39
2017-12-21T09:32:41.666Z,91.66
2017-12-21T09:35:07.469Z,91.33
2017-12-21T09:37:33.287Z,91.31
2017-12-21T09:39:59.080Z,90.57
2017-12-21T09:42:25.539Z,89.85
2017-12-21T09:44:51.874Z,89.64
2017-12-21T09:47:17.699Z,90.15
2017-12-21T09:49:43.693Z,90.27
2017-12-21T09:52:09.487Z,91.24
2017-12-21T09:54:35.284Z,90.88
2017-12-21T09:57:01.122Z,91.22
2017-12-21T09:59:26.891Z,90.34
2017-12-21T10:01:52.724Z,91.25
2017-12-21T10:04:18.539Z,91.16
2017-12-21T10:06:44.352Z,90.93
2017-12-21T10:09:10.184Z,90.82
2017-12-21T10:11:35.992Z,90.30
2017-12-21T10:14:01.783Z,90.58
2017-12-21T10:16:27.595Z,90.68
2017-12-21T10:18:53.591Z,90.83
2017-12-21T10:21:19.391Z,90.50
2017-12-21T10:23:45.204Z,89.99
2017-12-21T10:26:11.012Z,89.80
2017-12-21T10:28:36.904Z,89.60
2017-12-21T10:31:02.903Z,89.13
2017-12-21T10:33:28.683Z,90.33
2017-12-21T10:35:54.471Z,90.16
2017-12-21T10:38:20.307Z,90.80
2017-12-21T10:40:46.139Z,89.55
2017-12-21T10:43:11.965Z,90.65
2017-12-21T10:45:37.915Z,90.89
2017-12-21T10:48:03.715Z,90.18
2017-12-21T10:50:29.507Z,89.93
2017-12-21T10:52:55.368Z,89.84
2017-12-21T10:55:21.147Z,90.77
2017-12-21T10:57:46.943Z,91.66
2017-12-21T11:00:12.775Z,90.66
2017-12-21T11:02:38.571Z,90.93
2017-12-21T11:05:04.372Z,90.49
2017-12-21T11:07:30.924Z,90.33
2017-12-21T11:09:56.729Z,90.43
2017-12-21T11:12:22.514Z,90.23
2017-12-21T11:14:48.973Z,90.68
2017-12-21T11:17:14.784Z,89.91
2017-12-21T11:19:40.591Z,89.37
2017-12-21T11:22:07.255Z,89.21
2017-12-21T11:24:33.084Z,89.51
2017-12-21T11:26:58.890Z,88.09
2017-12-21T11:29:24.707Z,87.77
2017-12-21T11:31:50.510Z,86.88
2017-12-21T11:34:16.336Z,88.04
2017-12-21T11:36:42.159Z,86.99
2017-12-21T11:39:07.965Z,87.51
2017-12-21T11:41:33.767Z,86.64
2017-12-21T11:43:59.802Z,85.19
2017-12-21T11:46:25.600Z,85.26
2017-12-21T11:48:51.536Z,85.73
2017-12-21T11:51:17.344Z,82.54
2017-12-21T11:53:43.143Z,83.31
2017-12-21T11:56:09.013Z,84.05
2017-12-21T11:58:34.854Z,85.22
2017-12-21T12:01:01.319Z,83.78
2017-12-21T12:03:27.156Z,84.85
2017-12-21T12:05:52.991Z,86.52
2017-12-21T12:08:18.833Z,85.67
2017-12-21T12:10:44.951Z,87.46
2017-12-21T12:13:10.792Z,88.67
2017-12-21T12:15:36.583Z,89.55
2017-12-21T12:18:02.396Z,88.88
2017-12-21T12:20:28.224Z,89.02
2017-12-21T12:22:54.025Z,89.19
2017-12-21T12:25:19.829Z,89.62
2017-12-21T12:27:45.632Z,89.70
2017-12-21T12:30:11.600Z,90.73
2017-12-21T12:32:37.417Z,90.27
2017-12-21T12:35:03.208Z,90.03
2017-12-21T12:37:29.028Z,89.61
2017-12-21T12:39:54.847Z,89.19
2017-12-21T12:42:20.644Z,88.56
2017-12-21T12:44:46.692Z,88.84
2017-12-21T12:47:12.679Z,89.10
2017-12-21T12:49:38.486Z,88.15
2017-12-21T12:52:04.288Z,88.34
2017-12-21T12:54:30.081Z,87.84
2017-12-21T12:56:55.871Z,88.64
2017-12-21T12:59:21.669Z,87.76
2017-12-21T13:01:47.512Z,88.41
2017-12-21T13:04:13.311Z,89.06
2017-12-21T13:06:39.112Z,88.88
2017-12-21T13:09:04.933Z,88.80
2017-12-21T13:11:30.719Z,87.82
2017-12-21T13:13:56.537Z,88.43
2017-12-21T13:16:23.187Z,88.40
2017-12-21T13:18:49.014Z,88.77
2017-12-21T13:21:14.813Z,88.69
2017-12-21T13:23:40.635Z,89.00
2017-12-21T13:26:06.456Z,89.18
2017-12-21T13:28:32.267Z,88.95
2017-12-21T13:30:58.082Z,88.81
2017-12-21T13:33:24.137Z,88.01
2017-12-21T13:35:49.923Z,87.30
2017-12-21T13:38:15.722Z,86.75
2017-12-21T13:40:41.527Z,87.32
2017-12-21T13:43:07.320Z,88.11
2017-12-21T13:45:33.127Z,89.11
2017-12-21T13:47:58.960Z,88.98
2017-12-21T13:50:24.756Z,88.89
2017-12-21T13:52:50.567Z,89.18
2017-12-21T13:55:16.362Z,88.67
2017-12-21T13:57:42.170Z,89.18
2017-12-21T14:00:08.020Z,88.61
2017-12-21T14:02:33.824Z,87.70
2017-12-21T14:04:59.638Z,88.80
2017-12-21T14:07:25.480Z,87.05
2017-12-21T14:09:51.377Z,87.78
2017-12-21T14:12:17.183Z,87.78
2017-12-21T14:14:42.971Z,87.73
2017-12-21T14:17:08.755Z,88.23
2017-12-21T14:19:34.575Z,88.23
2017-12-21T14:22:00.368Z,88.28
2017-12-21T14:24:26.159Z,88.53
2017-12-21T14:26:51.964Z,87.91
2017-12-21T14:29:17.753Z,87.83
2017-12-21T14:31:43.558Z,87.92
2017-12-21T14:34:09.356Z,87.77
2017-12-21T14:36:35.144Z,86.68
2017-12-21T14:39:01.588Z,86.00
2017-12-21T14:41:27.690Z,86.22
2017-12-21T14:43:53.503Z,87.14
2017-12-21T14:46:19.307Z,86.83
2017-12-21T14:48:45.171Z,85.60
2017-12-21T14:51:11.054Z,85.74
2017-12-21T14:53:37.123Z,85.87
2017-12-21T14:56:02.924Z,86.88
2017-12-21T14:58:29.064Z,87.30
2017-12-21T15:00:54.880Z,87.27
2017-12-21T15:03:20.670Z,87.27
2017-12-21T15:05:46.623Z,86.78
2017-12-21T15:08:12.612Z,87.45
2017-12-21T15:10:38.404Z,87.66
2017-12-21T15:13:04.226Z,87.13
2017-12-21T15:15:30.375Z,87.67
2017-12-21T15:17:56.189Z,87.34
2017-12-21T15:20:22.348Z,87.04
2017-12-21T15:22:48.168Z,84.88
2017-12-21T15:25:13.965Z,84.75
2017-12-21T15:27:39.777Z,85.27
2017-12-21T15:30:05.607Z,83.83
2017-12-21T15:32:32.352Z,83.92
2017-12-21T15:34:59.006Z,86.00
2017-12-21T15:37:25.196Z,85.68
2017-12-21T15:39:51.000Z,86.41
2017-12-21T15:42:16.876Z,86.64
2017-12-21T15:44:42.691Z,86.33
2017-12-21T15:47:08.792Z,85.48
2017-12-21T15:49:34.827Z,83.87
2017-12-21T15:52:00.854Z,82.38
2017-12-21T15:54:26.917Z,84.72
2017-12-21T15:56:52.744Z,85.81
2017-12-21T15:59:18.559Z,85.37
2017-12-21T16:01:44.424Z,84.21
2017-12-21T16:04:10.212Z,87.01
2017-12-21T16:06:36.218Z,89.18
2017-12-21T16:09:02.260Z,90.01
2017-12-21T16:11:28.673Z,90.00
2017-12-21T16:13:55.481Z,90.06
2017-12-21T16:16:21.805Z,90.53
2017-12-21T16:18:47.640Z,90.77
2017-12-21T16:21:13.595Z,90.95
2017-12-21T16:23:39.423Z,91.44
2017-12-21T16:26:05.587Z,91.61
2017-12-21T16:28:31.440Z,92.22
2017-12-21T16:30:57.843Z,91.16
2017-12-21T16:33:23.744Z,91.64
2017-12-21T16:35:49.582Z,91.57
2017-12-21T16:38:15.524Z,91.63
2017-12-21T16:40:41.404Z,91.47
2017-12-21T16:43:07.245Z,92.04
2017-12-21T16:45:33.729Z,92.05
2017-12-21T16:47:59.957Z,91.99
2017-12-21T16:50:25.795Z,91.86
2017-12-21T16:52:51.937Z,91.72
2017-12-21T16:55:17.747Z,92.11
2017-12-21T16:57:43.624Z,92.44
2017-12-21T17:00:09.515Z,91.75
2017-12-21T17:02:36.304Z,91.46
2017-12-21T17:05:02.141Z,92.22
2017-12-21T17:07:29.107Z,91.96
2017-12-21T17:09:54.936Z,91.04
2017-12-21T17:12:20.757Z,90.91
2017-12-21T17:14:47.784Z,88.36
2017-12-21T17:17:13.652Z,90.13
2017-12-21T17:19:39.459Z,90.30
2017-12-21T17:22:05.300Z,91.30
2017-12-21T17:24:32.800Z,88.11
2017-12-21T17:26:58.634Z,87.92
2017-12-21T17:29:24.461Z,88.04
2017-12-21T17:31:50.342Z,89.94
2017-12-21T17:34:16.488Z,90.18
2017-12-21T17:36:42.463Z,90.95
2017-12-21T17:39:08.311Z,91.64
2017-12-21T17:41:34.146Z,90.96
2017-12-21T17:44:00.333Z,88.77
2017-12-21T17:46:26.221Z,89.65
2017-12-21T17:48:52.224Z,88.88
2017-12-21T17:51:18.387Z,90.24
2017-12-21T17:53:44.219Z,90.84
2017-12-21T17:56:10.277Z,90.06
2017-12-21T17:58:36.200Z,90.66
2017-12-21T18:01:02.632Z,89.77
2017-12-21T18:03:28.458Z,91.09
2017-12-21T18:05:54.275Z,91.50
2017-12-21T18:08:20.393Z,91.72
2017-12-21T18:10:46.241Z,91.24
2017-12-21T18:13:12.960Z,90.94
2017-12-21T18:15:38.796Z,91.35
2017-12-21T18:18:05.210Z,89.70
2017-12-21T18:20:31.035Z,90.09
2017-12-21T18:22:56.833Z,90.43
2017-12-21T18:25:22.665Z,90.82
2017-12-21T18:27:48.483Z,90.29
2017-12-21T18:30:14.296Z,89.61
2017-12-21T18:32:40.624Z,90.29
2017-12-21T18:35:06.435Z,90.91
2017-12-21T18:37:32.591Z,90.29
2017-12-21T18:39:58.798Z,90.30
2017-12-21T18:42:24.640Z,89.81
2017-12-21T18:44:50.639Z,89.86
2017-12-21T18:47:16.467Z,89.72
2017-12-21T18:49:43.535Z,90.04
2017-12-21T18:52:09.403Z,90.96
2017-12-21T18:54:35.272Z,91.08
2017-12-21T18:57:01.170Z,90.70
2017-12-21T18:59:27.161Z,91.02
2017-12-21T19:01:53.831Z,90.99
2017-12-21T19:04:19.678Z,90.79
2017-12-21T19:06:45.674Z,91.25
2017-12-21T19:09:11.559Z,91.31
2017-12-21T19:11:37.365Z,91.65
2017-12-21T19:14:03.192Z,91.49
2017-12-21T19:16:29.387Z,91.45
2017-12-21T19:18:55.205Z,91.64
2017-12-21T19:21:21.261Z,91.82
2017-12-21T19:23:47.122Z,92.10
2017-12-21T19:26:12.891Z,91.99
2017-12-21T19:28:39.115Z,91.99
2017-12-21T19:31:05.284Z,92.02
2017-12-21T19:33:31.164Z,92.27
2017-12-21T19:35:56.990Z,92.63
2017-12-21T19:38:23.418Z,93.05
2017-12-21T19:40:49.293Z,92.75
2017-12-21T19:43:15.299Z,92.95
2017-12-21T19:45:41.137Z,92.92
2017-12-21T19:48:07.243Z,93.01
2017-12-21T19:50:33.243Z,93.27
2017-12-21T19:52:59.089Z,93.55
2017-12-21T19:55:24.918Z,93.54
2017-12-21T19:57:50.745Z,93.53
2017-12-21T20:00:16.852Z,93.28
2017-12-21T20:02:42.699Z,93.38
2017-12-21T20:05:08.575Z,93.62
2017-12-21T20:07:34.385Z,93.33
2017-12-21T20:10:00.276Z,93.40
2017-12-21T20:12:26.113Z,93.33
2017-12-21T20:14:51.932Z,93.50
2017-12-21T20:17:18.288Z,93.60
2017-12-21T20:19:44.191Z,93.76
2017-12-21T20:22:10.012Z,93.39
2017-12-21T20:24:36.061Z,93.78
2017-12-21T20:27:02.286Z,93.83
2017-12-21T20:29:28.093Z,93.95
2017-12-21T20:31:53.908Z,93.86
2017-12-21T20:34:20.140Z,93.71
2017-12-21T20:36:45.984Z,93.88
2017-12-21T20:39:11.802Z,93.79
2017-12-21T20:41:37.621Z,93.98
2017-12-21T20:44:03.432Z,94.12
2017-12-21T20:46:29.652Z,94.04
2017-12-21T20:48:55.936Z,94.09
2017-12-21T20:51:21.959Z,93.39
2017-12-21T20:53:48.118Z,93.76
2017-12-21T20:56:14.007Z,93.74
2017-12-21T20:58:40.068Z,93.58
2017-12-21T21:01:06.188Z,93.30
2017-12-21T21:03:32.023Z,93.48
2017-12-21T21:05:57.839Z,93.45
2017-12-21T21:08:23.887Z,93.50
2017-12-21T21:10:49.729Z,93.56
2017-12-21T21:13:15.763Z,93.71
2017-12-21T21:15:41.597Z,93.25
2017-12-21T21:18:07.460Z,93.70
2017-12-21T21:20:34.079Z,94.03
2017-12-21T21:23:01.547Z,94.17
2017-12-21T21:25:29.017Z,94.46
2017-12-21T21:27:55.312Z,94.48
2017-12-21T21:30:21.632Z,94.42
2017-12-21T21:32:49.205Z,94.72
2017-12-21T21:35:15.736Z,94.85
2017-12-21T21:37:41.603Z,94.69
2017-12-21T21:40:08.090Z,94.67
2017-12-21T21:42:34.279Z,95.00
2017-12-21T21:45:00.713Z,94.91
2017-12-21T21:47:27.764Z,94.87
2017-12-21T21:49:55.440Z,94.65
2017-12-21T21:52:22.513Z,95.13
2017-12-21T21:54:49.348Z,95.44
2017-12-21T21:57:15.387Z,95.43
2017-12-21T21:59:41.435Z,95.62
2017-12-21T22:02:07.261Z,95.76
2017-12-21T22:04:33.080Z,95.89
2017-12-21T22:06:59.068Z,95.85
2017-12-21T22:09:25.384Z,96.15
2017-12-21T22:11:51.193Z,96.40
2017-12-21T22:14:17.056Z,96.48
2017-12-21T22:16:43.333Z,96.83
2017-12-21T22:19:10.297Z,96.77
2017-12-21T22:21:36.222Z,96.88
2017-12-21T22:24:02.051Z,96.85
2017-12-21T22:26:27.867Z,96.88
2017-12-21T22:28:53.981Z,96.84
2017-12-21T22:31:19.795Z,96.40
2017-12-21T22:33:45.596Z,96.67
2017-12-21T22:36:11.903Z,96.31
2017-12-21T22:38:37.724Z,96.15
2017-12-21T22:41:03.528Z,96.12
2017-12-21T22:43:29.364Z,96.38
2017-12-21T22:45:55.287Z,96.62
2017-12-21T22:48:21.108Z,96.74
2017-12-21T22:50:47.184Z,96.84
2017-12-21T22:53:13.195Z,95.54
2017-12-21T22:55:39.009Z,95.79
2017-12-21T22:58:05.129Z,96.24
2017-12-21T23:00:31.012Z,96.49
2017-12-21T23:02:57.045Z,96.83
2017-12-21T23:05:23.043Z,96.81
2017-12-21T23:07:49.090Z,96.71
2017-12-21T23:10:14.920Z,97.04
2017-12-21T23:12:40.768Z,96.99
2017-12-21T23:15:06.677Z,96.91
2017-12-21T23:17:32.542Z,96.90
2017-12-21T23:19:58.400Z,97.18
2017-12-21T23:22:24.451Z,97.04
2017-12-21T23:24:50.263Z,97.04
2017-12-21T23:27:16.090Z,96.78
2017-12-21T23:29:41.884Z,96.72
2017-12-21T23:32:07.678Z,96.49
2017-12-21T23:34:33.492Z,96.58
2017-12-21T23:36:59.311Z,96.66
2017-12-21T23:39:25.113Z,96.85
2017-12-21T23:41:51.092Z,96.78
2017-12-21T23:44:16.893Z,96.17
2017-12-21T23:46:42.707Z,96.44
2017-12-21T23:49:08.539Z,96.87
2017-12-21T23:51:34.372Z,96.94
2017-12-21T23:54:00.184Z,96.78
2017-12-21T23:56:26.025Z,96.90
2017-12-21T23:58:51.929Z,96.89
